createdAt,value
2016-02-28T00:00:41.439Z,0
2016-02-28T00:01:41.474Z,0
2016-02-28T00:02:41.444Z,0
2016-02-28T00:03:41.463Z,0
2016-02-28T00:04:41.466Z,0
2016-02-28T00:05:41.484Z,0
2016-02-28T00:06:41.455Z,0
2016-02-28T00:07:41.552Z,0
2016-02-28T00:08:41.476Z,0
2016-02-28T00:09:41.463Z,0
2016-02-28T00:10:41.513Z,0
2016-02-28T00:11:41.500Z,0
2016-02-28T00:12:41.519Z,0
2016-02-28T00:13:41.506Z,0
2016-02-28T00:14:41.524Z,0
2016-02-28T00:15:50.545Z,0
2016-02-28T00:16:41.514Z,0
2016-02-28T00:17:41.579Z,0
2016-02-28T00:18:41.534Z,0
2016-02-28T00:19:41.543Z,0
2016-02-28T00:20:41.546Z,0
2016-02-28T00:21:41.548Z,0
2016-02-28T00:22:41.567Z,0
2016-02-28T00:23:41.569Z,0
2016-02-28T00:24:41.572Z,0
2016-02-28T00:25:41.560Z,0
2016-02-28T00:26:41.562Z,0
2016-02-28T00:27:41.581Z,0
2016-02-28T00:28:41.598Z,0
2016-02-28T00:29:41.586Z,0
2016-02-28T00:30:41.572Z,0
2016-02-28T00:31:41.606Z,0
2016-02-28T00:32:41.609Z,0
2016-02-28T00:33:41.456Z,0
2016-02-28T00:34:41.615Z,0
2016-02-28T00:35:41.617Z,0
2016-02-28T00:36:41.636Z,0
2016-02-28T00:37:41.670Z,0
2016-02-28T00:38:41.625Z,0
2016-02-28T00:39:41.628Z,0
2016-02-28T00:40:41.647Z,0
2016-02-28T00:41:41.665Z,0
2016-02-28T00:42:41.652Z,0
2016-02-28T00:43:41.638Z,0
2016-02-28T00:44:41.704Z,0
2016-02-28T00:49:02.232Z,0
2016-02-28T00:49:30.951Z,0
2016-02-28T00:50:30.939Z,0
2016-02-28T00:51:30.957Z,0
2016-02-28T00:52:30.976Z,0
2016-02-28T00:53:30.948Z,0
2016-02-28T00:54:30.981Z,0
2016-02-28T00:55:30.953Z,0
2016-02-28T00:56:30.955Z,0
2016-02-28T00:57:30.973Z,0
2016-02-28T00:58:30.961Z,0
2016-02-28T00:59:30.979Z,0
2016-02-28T01:00:30.997Z,0
2016-02-28T01:01:31.015Z,0
2016-02-28T01:02:30.987Z,0
2016-02-28T01:03:31.006Z,0
2016-02-28T01:04:30.992Z,0
2016-02-28T01:05:30.901Z,0
2016-02-28T01:06:31.076Z,0
2016-02-28T01:07:31.016Z,0
2016-02-28T01:08:31.034Z,0
2016-02-28T01:09:30.880Z,0
2016-02-28T01:10:31.039Z,0
2016-02-28T01:11:31.042Z,0
2016-02-28T01:12:31.045Z,0
2016-02-28T01:13:31.064Z,0
2016-02-28T01:14:31.050Z,0
2016-02-28T01:20:29.191Z,0
2016-02-28T01:20:42.441Z,0
2016-02-28T01:21:46.554Z,0
2016-02-28T01:22:41.853Z,0
2016-02-28T01:23:41.856Z,0
2016-02-28T01:24:41.874Z,0
2016-02-28T01:25:41.893Z,0
2016-02-28T01:26:41.879Z,0
2016-02-28T01:27:41.898Z,0
2016-02-28T01:28:41.884Z,0
2016-02-28T01:29:41.888Z,0
2016-02-28T01:30:41.890Z,0
2016-02-28T01:31:41.909Z,0
2016-02-28T01:32:41.912Z,0
2016-02-28T01:33:41.930Z,0
2016-02-28T01:34:41.933Z,0
2016-02-28T01:35:41.919Z,0
2016-02-28T01:36:41.984Z,0
2016-02-28T01:37:41.941Z,0
2016-02-28T01:38:41.944Z,0
2016-02-28T01:39:41.946Z,0
2016-02-28T01:40:41.949Z,0
2016-02-28T01:41:41.952Z,0
2016-02-28T01:42:41.985Z,0
2016-02-28T01:43:41.957Z,0
2016-02-28T01:44:41.975Z,0
2016-02-28T01:45:41.993Z,0
2016-02-28T01:46:41.840Z,0
2016-02-28T01:47:41.827Z,0
2016-02-28T01:48:42.001Z,0
2016-02-28T01:49:41.988Z,0
2016-02-28T01:50:41.991Z,0
2016-02-28T01:51:42.010Z,0
2016-02-28T01:52:41.996Z,0
2016-02-28T01:53:42.015Z,0
2016-02-28T01:54:42.018Z,0
2016-02-28T01:55:42.052Z,0
2016-02-28T01:56:42.117Z,0
2016-02-28T01:57:42.041Z,0
2016-02-28T01:58:42.043Z,0
2016-02-28T01:59:42.093Z,0
2016-02-28T02:00:42.049Z,0
2016-02-28T02:01:42.067Z,0
2016-02-28T02:02:42.086Z,0
2016-02-28T02:03:42.120Z,0
2016-02-28T02:04:42.076Z,0
2016-02-28T02:05:42.078Z,0
2016-02-28T02:06:42.081Z,0
2016-02-28T02:07:42.114Z,0
2016-02-28T02:08:42.086Z,0
2016-02-28T02:09:42.089Z,0
2016-02-28T02:10:42.139Z,0
2016-02-28T02:11:42.110Z,0
2016-02-28T02:12:42.113Z,0
2016-02-28T02:13:42.116Z,0
2016-02-28T02:14:42.165Z,0
2016-02-28T02:16:13.436Z,0
2016-02-28T02:16:42.124Z,0
2016-02-28T02:17:42.174Z,0
2016-02-28T02:18:42.144Z,0
2016-02-28T02:19:42.147Z,0
2016-02-28T02:20:42.166Z,0
2016-02-28T02:21:42.153Z,0
2016-02-28T02:22:42.155Z,0
2016-02-28T02:23:42.158Z,0
2016-02-28T02:24:42.160Z,0
2016-02-28T02:25:42.195Z,0
2016-02-28T02:26:42.198Z,0
2016-02-28T02:27:42.200Z,0
2016-02-28T02:28:42.187Z,0
2016-02-28T02:29:42.190Z,0
2016-02-28T02:30:42.209Z,0
2016-02-28T02:31:42.211Z,0
2016-02-28T02:32:42.214Z,0
2016-02-28T02:33:42.200Z,0
2016-02-28T02:34:42.219Z,0
2016-02-28T02:35:42.222Z,0
2016-02-28T02:36:42.271Z,0
2016-02-28T02:37:42.227Z,0
2016-02-28T02:38:42.230Z,0
2016-02-28T02:39:42.263Z,0
2016-02-28T02:40:42.250Z,0
2016-02-28T02:41:42.269Z,0
2016-02-28T02:42:42.256Z,0
2016-02-28T02:43:42.259Z,0
2016-02-28T02:44:42.261Z,0
2016-02-28T02:51:52.093Z,0
2016-02-28T02:52:20.782Z,0
2016-02-28T02:53:20.816Z,0
2016-02-28T02:54:20.804Z,0
2016-02-28T02:55:20.807Z,0
2016-02-28T02:56:20.809Z,0
2016-02-28T02:57:20.843Z,0
2016-02-28T02:58:20.846Z,0
2016-02-28T02:59:20.817Z,0
2016-02-28T03:00:20.882Z,0
2016-02-28T03:01:20.823Z,0
2016-02-28T03:02:20.856Z,0
2016-02-28T03:03:20.843Z,0
2016-02-28T03:04:20.862Z,0
2016-02-28T03:05:20.848Z,0
2016-02-28T03:06:20.867Z,0
2016-02-28T03:07:20.886Z,0
2016-02-28T03:08:20.889Z,0
2016-02-28T03:09:20.892Z,0
2016-02-28T03:10:20.878Z,0
2016-02-28T03:11:20.881Z,0
2016-02-28T03:12:20.899Z,0
2016-02-28T03:13:20.902Z,0
2016-02-28T03:14:20.905Z,0
2016-02-28T03:16:56.553Z,0
2016-02-28T03:17:56.588Z,0
2016-02-28T03:18:56.558Z,0
2016-02-28T03:19:56.561Z,0
2016-02-28T03:20:56.596Z,0
2016-02-28T03:21:56.566Z,0
2016-02-28T03:22:56.585Z,0
2016-02-28T03:23:56.588Z,0
2016-02-28T03:24:56.606Z,0
2016-02-28T03:25:56.593Z,0
2016-02-28T03:26:56.612Z,0
2016-02-28T03:27:56.630Z,0
2016-02-28T03:28:56.617Z,0
2016-02-28T03:29:56.604Z,0
2016-02-28T03:30:56.622Z,0
2016-02-28T03:31:56.625Z,0
2016-02-28T03:32:56.628Z,0
2016-02-28T03:33:56.708Z,0
2016-02-28T03:34:56.633Z,0
2016-02-28T03:35:56.651Z,0
2016-02-28T03:36:56.653Z,0
2016-02-28T03:37:56.656Z,0
2016-02-28T03:38:56.659Z,0
2016-02-28T03:39:56.677Z,0
2016-02-28T03:40:56.680Z,0
2016-02-28T03:41:56.667Z,0
2016-02-28T03:42:56.717Z,0
2016-02-28T03:43:56.688Z,0
2016-02-28T03:44:56.739Z,0
2016-02-28T03:49:48.577Z,0
2016-02-28T03:50:01.236Z,0
2016-02-28T03:51:01.239Z,0
2016-02-28T03:52:01.241Z,0
2016-02-28T03:53:01.244Z,0
2016-02-28T03:54:01.263Z,0
2016-02-28T03:55:01.265Z,0
2016-02-28T03:56:01.268Z,0
2016-02-28T03:57:01.270Z,0
2016-02-28T03:58:01.257Z,0
2016-02-28T03:59:01.290Z,0
2016-02-28T04:00:01.293Z,0
2016-02-28T04:01:01.312Z,0
2016-02-28T04:02:01.299Z,0
2016-02-28T04:03:01.286Z,0
2016-02-28T04:04:01.295Z,0
2016-02-28T04:05:01.312Z,0
2016-02-28T04:06:01.315Z,0
2016-02-28T04:07:01.334Z,0
2016-02-28T04:08:01.321Z,0
2016-02-28T04:09:01.369Z,0
2016-02-28T04:10:01.356Z,0
2016-02-28T04:11:01.344Z,0
2016-02-28T04:12:01.331Z,0
2016-02-28T04:13:01.334Z,0
2016-02-28T04:14:01.368Z,0
2016-02-28T04:15:01.402Z,0
2016-02-28T04:17:44.345Z,0
2016-02-28T04:17:57.019Z,0
2016-02-28T04:18:57.005Z,0
2016-02-28T04:19:57.009Z,0
2016-02-28T04:20:57.011Z,0
2016-02-28T04:21:57.014Z,0
2016-02-28T04:22:57.017Z,0
2016-02-28T04:23:57.098Z,0
2016-02-28T04:24:57.051Z,0
2016-02-28T04:25:57.038Z,0
2016-02-28T04:26:57.040Z,0
2016-02-28T04:27:57.043Z,0
2016-02-28T04:28:57.062Z,0
2016-02-28T04:29:57.114Z,0
2016-02-28T04:30:57.067Z,0
2016-02-28T04:31:57.085Z,0
2016-02-28T04:32:57.073Z,0
2016-02-28T04:33:57.075Z,0
2016-02-28T04:34:57.078Z,0
2016-02-28T04:35:57.096Z,0
2016-02-28T04:36:57.114Z,0
2016-02-28T04:37:57.101Z,0
2016-02-28T04:38:57.104Z,0
2016-02-28T04:39:57.122Z,0
2016-02-28T04:40:57.125Z,0
2016-02-28T04:41:56.394Z,0
2016-02-28T04:42:57.115Z,0
2016-02-28T04:43:57.117Z,0
2016-02-28T04:44:57.136Z,0
2016-02-28T04:46:06.172Z,0
2016-02-28T04:46:57.172Z,0
2016-02-28T04:47:57.160Z,0
2016-02-28T04:48:57.147Z,0
2016-02-28T04:49:57.149Z,0
2016-02-28T04:50:57.183Z,0
2016-02-28T04:51:57.202Z,0
2016-02-28T04:52:57.173Z,0
2016-02-28T04:53:57.191Z,0
2016-02-28T04:54:57.179Z,0
2016-02-28T04:55:57.244Z,0
2016-02-28T04:56:57.199Z,0
2016-02-28T04:57:57.249Z,0
2016-02-28T04:58:57.205Z,0
2016-02-28T04:59:57.238Z,0
2016-02-28T05:00:57.210Z,0
2016-02-28T05:01:57.228Z,0
2016-02-28T05:02:57.247Z,0
2016-02-28T05:03:57.218Z,0
2016-02-28T05:04:57.237Z,0
2016-02-28T05:05:57.240Z,0
2016-02-28T05:06:57.242Z,0
2016-02-28T05:07:57.276Z,0
2016-02-28T05:08:57.263Z,0
2016-02-28T05:09:57.250Z,0
2016-02-28T05:10:57.253Z,0
2016-02-28T05:11:57.271Z,0
2016-02-28T05:12:57.290Z,0
2016-02-28T05:13:57.292Z,0
2016-02-28T05:14:57.294Z,0
2016-02-28T05:16:48.831Z,0
2016-02-28T05:17:01.506Z,0
2016-02-28T05:18:01.508Z,0
2016-02-28T05:19:01.496Z,0
2016-02-28T05:20:01.499Z,0
2016-02-28T05:21:01.502Z,0
2016-02-28T05:22:01.519Z,0
2016-02-28T05:23:01.522Z,0
2016-02-28T05:24:01.369Z,0
2016-02-28T05:25:01.512Z,0
2016-02-28T05:26:01.515Z,0
2016-02-28T05:27:01.517Z,0
2016-02-28T05:28:01.536Z,0
2016-02-28T05:29:01.554Z,0
2016-02-28T05:30:01.588Z,0
2016-02-28T05:31:01.574Z,0
2016-02-28T05:32:01.577Z,0
2016-02-28T05:33:01.549Z,0
2016-02-28T05:34:01.567Z,0
2016-02-28T05:35:01.585Z,0
2016-02-28T05:36:01.573Z,0
2016-02-28T05:37:01.591Z,0
2016-02-28T05:38:01.609Z,0
2016-02-28T05:39:01.581Z,0
2016-02-28T05:40:01.584Z,0
2016-02-28T05:41:01.602Z,0
2016-02-28T05:42:01.620Z,0
2016-02-28T05:43:01.607Z,0
2016-02-28T05:44:01.625Z,0
2016-02-28T05:45:01.628Z,0
2016-02-28T05:46:05.850Z,0
2016-02-28T05:47:01.633Z,0
2016-02-28T05:48:01.620Z,0
2016-02-28T05:49:01.639Z,0
2016-02-28T05:50:01.658Z,0
2016-02-28T05:51:01.660Z,0
2016-02-28T05:52:01.647Z,0
2016-02-28T05:53:01.666Z,0
2016-02-28T05:54:01.668Z,0
2016-02-28T05:55:01.655Z,0
2016-02-28T05:56:01.674Z,0
2016-02-28T05:57:01.691Z,0
2016-02-28T05:58:01.710Z,0
2016-02-28T05:59:01.679Z,0
2016-02-28T06:00:01.700Z,0
2016-02-28T06:01:01.734Z,0
2016-02-28T06:02:01.721Z,0
2016-02-28T06:03:01.705Z,0
2016-02-28T06:04:01.726Z,0
2016-02-28T06:05:01.745Z,0
2016-02-28T06:06:01.713Z,0
2016-02-28T06:07:01.750Z,0
2016-02-28T06:08:01.753Z,0
2016-02-28T06:09:01.740Z,0
2016-02-28T06:10:01.742Z,0
2016-02-28T06:11:01.761Z,0
2016-02-28T06:12:01.748Z,0
2016-02-28T06:13:01.781Z,0
2016-02-28T06:14:01.750Z,0
2016-02-28T06:15:01.769Z,0
2016-02-28T06:16:01.755Z,0
2016-02-28T06:17:01.775Z,0
2016-02-28T06:18:01.839Z,0
2016-02-28T06:19:01.795Z,0
2016-02-28T06:20:01.814Z,0
2016-02-28T06:21:01.800Z,0
2016-02-28T06:22:01.788Z,0
2016-02-28T06:23:01.821Z,0
2016-02-28T06:24:01.808Z,0
2016-02-28T06:25:01.842Z,0
2016-02-28T06:26:01.813Z,0
2016-02-28T06:27:01.832Z,0
2016-02-28T06:28:01.819Z,0
2016-02-28T06:29:01.822Z,5
2016-02-28T06:30:01.855Z,5
2016-02-28T06:31:01.843Z,5
2016-02-28T06:32:01.877Z,5
2016-02-28T06:33:01.864Z,5
2016-02-28T06:34:01.882Z,5
2016-02-28T06:35:01.698Z,5
2016-02-28T06:36:01.872Z,10
2016-02-28T06:37:01.719Z,10
2016-02-28T06:38:01.909Z,10
2016-02-28T06:39:01.880Z,10
2016-02-28T06:40:01.898Z,10
2016-02-28T06:41:01.901Z,10
2016-02-28T06:42:01.920Z,10
2016-02-28T06:43:01.906Z,15
2016-02-28T06:44:01.940Z,15
2016-02-28T06:45:01.896Z,15
2016-02-28T06:47:04.561Z,15
2016-02-28T06:47:17.233Z,15
2016-02-28T06:48:17.219Z,15
2016-02-28T06:49:17.238Z,15
2016-02-28T06:50:17.272Z,15
2016-02-28T06:51:17.243Z,20
2016-02-28T06:52:17.231Z,20
2016-02-28T06:53:17.295Z,20
2016-02-28T06:54:17.283Z,20
2016-02-28T06:55:17.254Z,20
2016-02-28T06:56:17.257Z,20
2016-02-28T06:57:17.275Z,25
2016-02-28T06:58:17.278Z,25
2016-02-28T06:59:17.280Z,25
2016-02-28T07:00:17.768Z,25
2016-02-28T07:01:17.302Z,25
2016-02-28T07:02:17.289Z,25
2016-02-28T07:03:17.291Z,25
2016-02-28T07:04:17.310Z,30
2016-02-28T07:05:17.297Z,30
2016-02-28T07:06:17.315Z,30
2016-02-28T07:07:17.333Z,30
2016-02-28T07:08:17.304Z,30
2016-02-28T07:09:17.338Z,35
2016-02-28T07:10:17.341Z,35
2016-02-28T07:11:17.359Z,35
2016-02-28T07:12:17.346Z,35
2016-02-28T07:13:17.349Z,40
2016-02-28T07:14:17.352Z,40
2016-02-28T07:18:37.925Z,40
2016-02-28T07:18:50.597Z,40
2016-02-28T07:19:50.614Z,45
2016-02-28T07:20:50.586Z,45
2016-02-28T07:21:50.620Z,45
2016-02-28T07:22:50.639Z,45
2016-02-28T07:23:50.611Z,45
2016-02-28T07:24:50.691Z,45
2016-02-28T07:25:50.616Z,50
2016-02-28T07:26:50.634Z,50
2016-02-28T07:27:50.622Z,50
2016-02-28T07:28:50.655Z,50
2016-02-28T07:29:50.658Z,50
2016-02-28T07:30:50.676Z,50
2016-02-28T07:31:50.663Z,50
2016-02-28T07:32:50.682Z,50
2016-02-28T07:33:50.668Z,50
2016-02-28T07:34:50.687Z,50
2016-02-28T07:35:50.674Z,50
2016-02-28T07:36:50.677Z,50
2016-02-28T07:37:50.710Z,55
2016-02-28T07:38:50.698Z,55
2016-02-28T07:39:50.701Z,55
2016-02-28T07:40:50.687Z,55
2016-02-28T07:41:50.737Z,55
2016-02-28T07:42:50.708Z,55
2016-02-28T07:43:50.712Z,55
2016-02-28T07:44:50.730Z,55
2016-02-28T07:49:31.518Z,60
2016-02-28T07:49:44.174Z,60
2016-02-28T07:50:44.212Z,60
2016-02-28T07:51:44.156Z,60
2016-02-28T07:52:44.178Z,60
2016-02-28T07:53:44.175Z,60
2016-02-28T07:54:44.188Z,60
2016-02-28T07:55:44.173Z,65
2016-02-28T07:56:43.889Z,65
2016-02-28T07:57:44.153Z,65
2016-02-28T07:58:44.154Z,65
2016-02-28T07:59:44.186Z,65
2016-02-28T08:00:44.188Z,65
2016-02-28T08:01:44.174Z,60
2016-02-28T08:02:44.175Z,65
2016-02-28T08:03:44.192Z,65
2016-02-28T08:04:44.179Z,70
2016-02-28T08:05:44.196Z,80
2016-02-28T08:06:44.198Z,145
2016-02-28T08:07:44.200Z,240
2016-02-28T08:08:44.048Z,265
2016-02-28T08:09:44.206Z,270
2016-02-28T08:10:44.240Z,270
2016-02-28T08:11:44.210Z,275
2016-02-28T08:12:44.245Z,280
2016-02-28T08:13:44.231Z,290
2016-02-28T08:14:44.265Z,270
2016-02-28T08:18:22.431Z,320
2016-02-28T08:19:22.434Z,385
2016-02-28T08:20:22.468Z,395
2016-02-28T08:21:22.440Z,405
2016-02-28T08:22:22.459Z,415
2016-02-28T08:23:22.492Z,425
2016-02-28T08:24:22.480Z,400
2016-02-28T08:25:22.482Z,385
2016-02-28T08:26:22.485Z,390
2016-02-28T08:27:22.518Z,420
2016-02-28T08:28:22.522Z,400
2016-02-28T08:29:22.524Z,435
2016-02-28T08:30:22.543Z,430
2016-02-28T08:31:22.591Z,430
2016-02-28T08:32:22.548Z,470
2016-02-28T08:33:22.581Z,460
2016-02-28T08:34:22.569Z,425
2016-02-28T08:35:22.588Z,405
2016-02-28T08:36:22.605Z,405
2016-02-28T08:37:22.640Z,380
2016-02-28T08:38:22.626Z,410
2016-02-28T08:39:22.629Z,345
2016-02-28T08:40:22.631Z,325
2016-02-28T08:41:22.650Z,265
2016-02-28T08:42:22.668Z,260
2016-02-28T08:43:22.671Z,240
2016-02-28T08:44:22.673Z,270
2016-02-28T08:46:25.335Z,265
2016-02-28T08:46:38.006Z,255
2016-02-28T08:47:38.010Z,240
2016-02-28T08:48:37.998Z,235
2016-02-28T08:49:38.031Z,215
2016-02-28T08:50:38.018Z,220
2016-02-28T08:51:38.052Z,255
2016-02-28T08:52:38.039Z,255
2016-02-28T08:53:38.041Z,250
2016-02-28T08:54:38.060Z,180
2016-02-28T08:55:38.078Z,175
2016-02-28T08:56:38.081Z,160
2016-02-28T08:57:38.100Z,155
2016-02-28T08:58:38.102Z,165
2016-02-28T08:59:38.105Z,155
2016-02-28T09:00:38.107Z,150
2016-02-28T09:01:38.128Z,135
2016-02-28T09:02:38.145Z,130
2016-02-28T09:03:38.180Z,145
2016-02-28T09:04:38.182Z,140
2016-02-28T09:05:38.175Z,165
2016-02-28T09:06:38.178Z,160
2016-02-28T09:07:38.195Z,165
2016-02-28T09:08:38.230Z,220
2016-02-28T09:09:38.216Z,250
2016-02-28T09:10:38.203Z,185
2016-02-28T09:11:38.222Z,250
2016-02-28T09:12:38.256Z,340
2016-02-28T09:13:38.243Z,415
2016-02-28T09:14:38.246Z,375
2016-02-28T09:20:41.808Z,390
2016-02-28T09:20:54.480Z,375
2016-02-28T09:21:54.468Z,365
2016-02-28T09:22:54.486Z,350
2016-02-28T09:23:54.488Z,330
2016-02-28T09:24:54.491Z,415
2016-02-28T09:25:54.509Z,425
2016-02-28T09:26:54.513Z,435
2016-02-28T09:27:54.531Z,480
2016-02-28T09:28:54.549Z,470
2016-02-28T09:29:54.537Z,475
2016-02-28T09:30:54.539Z,475
2016-02-28T09:31:54.573Z,475
2016-02-28T09:32:54.590Z,515
2016-02-28T09:33:54.594Z,535
2016-02-28T09:34:54.596Z,545
2016-02-28T09:35:54.729Z,545
2016-02-28T09:36:54.645Z,535
2016-02-28T09:37:54.478Z,565
2016-02-28T09:38:55.142Z,575
2016-02-28T09:39:54.630Z,555
2016-02-28T09:40:54.632Z,560
2016-02-28T09:41:54.651Z,505
2016-02-28T09:42:54.669Z,320
2016-02-28T09:43:54.687Z,170
2016-02-28T09:44:54.690Z,130
2016-02-28T09:49:35.510Z,115
2016-02-28T09:49:48.167Z,115
2016-02-28T09:50:48.247Z,110
2016-02-28T09:51:47.875Z,110
2016-02-28T09:52:48.190Z,105
2016-02-28T09:53:48.286Z,105
2016-02-28T09:54:48.211Z,105
2016-02-28T09:55:48.213Z,100
2016-02-28T09:56:48.232Z,100
2016-02-28T09:57:48.250Z,95
2016-02-28T09:58:48.237Z,95
2016-02-28T09:59:48.272Z,95
2016-02-28T10:00:48.274Z,95
2016-02-28T10:01:48.277Z,90
2016-02-28T10:02:48.269Z,90
2016-02-28T10:03:48.272Z,90
2016-02-28T10:04:48.275Z,90
2016-02-28T10:05:48.043Z,85
2016-02-28T10:06:48.224Z,85
2016-02-28T10:07:48.320Z,85
2016-02-28T10:08:48.323Z,80
2016-02-28T10:09:48.311Z,80
2016-02-28T10:10:48.314Z,80
2016-02-28T10:11:48.348Z,80
2016-02-28T10:12:48.350Z,80
2016-02-28T10:13:48.400Z,80
2016-02-28T10:14:48.340Z,80
2016-02-28T10:18:26.522Z,80
2016-02-28T10:19:26.509Z,80
2016-02-28T10:20:26.544Z,80
2016-02-28T10:21:26.547Z,80
2016-02-28T10:22:26.533Z,80
2016-02-28T10:23:26.536Z,85
2016-02-28T10:24:26.569Z,85
2016-02-28T10:25:26.557Z,85
2016-02-28T10:26:26.559Z,80
2016-02-28T10:27:26.577Z,80
2016-02-28T10:28:26.580Z,80
2016-02-28T10:29:26.568Z,80
2016-02-28T10:30:26.477Z,80
2016-02-28T10:31:26.588Z,80
2016-02-28T10:32:26.607Z,80
2016-02-28T10:33:26.610Z,80
2016-02-28T10:34:26.612Z,80
2016-02-28T10:35:26.615Z,80
2016-02-28T10:36:26.617Z,80
2016-02-28T10:37:26.682Z,80
2016-02-28T10:38:26.623Z,80
2016-02-28T10:39:26.642Z,80
2016-02-28T10:40:26.660Z,80
2016-02-28T10:41:26.663Z,80
2016-02-28T10:42:26.650Z,80
2016-02-28T10:43:26.668Z,75
2016-02-28T10:44:26.686Z,80
2016-02-28T10:49:27.606Z,80
2016-02-28T10:49:40.294Z,80
2016-02-28T10:50:40.265Z,80
2016-02-28T10:51:40.267Z,80
2016-02-28T10:52:40.114Z,80
2016-02-28T10:53:40.319Z,80
2016-02-28T10:54:40.307Z,80
2016-02-28T10:55:40.293Z,80
2016-02-28T10:56:40.297Z,80
2016-02-28T10:57:40.299Z,80
2016-02-28T10:58:40.302Z,80
2016-02-28T10:59:40.304Z,75
2016-02-28T11:00:40.510Z,75
2016-02-28T11:01:40.310Z,75
2016-02-28T11:02:40.329Z,75
2016-02-28T11:03:40.347Z,75
2016-02-28T11:04:40.349Z,75
2016-02-28T11:05:40.352Z,70
2016-02-28T11:06:40.354Z,75
2016-02-28T11:07:40.357Z,75
2016-02-28T11:08:40.360Z,75
2016-02-28T11:09:40.379Z,70
2016-02-28T11:10:40.365Z,70
2016-02-28T11:11:40.446Z,70
2016-02-28T11:12:40.387Z,70
2016-02-28T11:13:40.420Z,70
2016-02-28T11:14:40.392Z,70
2016-02-28T11:17:24.415Z,70
2016-02-28T11:17:37.072Z,70
2016-02-28T11:18:37.075Z,70
2016-02-28T11:19:37.077Z,65
2016-02-28T11:20:37.080Z,65
2016-02-28T11:21:37.144Z,65
2016-02-28T11:22:37.117Z,65
2016-02-28T11:23:37.104Z,65
2016-02-28T11:24:37.106Z,65
2016-02-28T11:25:37.125Z,65
2016-02-28T11:26:37.158Z,65
2016-02-28T11:27:37.114Z,65
2016-02-28T11:28:37.132Z,65
2016-02-28T11:29:37.136Z,65
2016-02-28T11:30:37.169Z,65
2016-02-28T11:31:37.141Z,65
2016-02-28T11:32:37.190Z,65
2016-02-28T11:33:37.146Z,65
2016-02-28T11:34:37.180Z,65
2016-02-28T11:35:37.167Z,65
2016-02-28T11:36:37.170Z,65
2016-02-28T11:37:37.235Z,60
2016-02-28T11:38:37.035Z,60
2016-02-28T11:39:37.209Z,60
2016-02-28T11:40:37.181Z,65
2016-02-28T11:41:37.229Z,65
2016-02-28T11:42:37.201Z,65
2016-02-28T11:43:37.235Z,65
2016-02-28T11:44:37.207Z,65
2016-02-28T11:47:42.495Z,60
2016-02-28T11:47:55.152Z,60
2016-02-28T11:48:55.186Z,60
2016-02-28T11:49:55.158Z,60
2016-02-28T11:50:55.176Z,65
2016-02-28T11:51:55.178Z,65
2016-02-28T11:52:55.181Z,60
2016-02-28T11:53:55.231Z,65
2016-02-28T11:54:55.187Z,60
2016-02-28T11:55:55.205Z,60
2016-02-28T11:56:55.192Z,60
2016-02-28T11:57:55.242Z,60
2016-02-28T11:58:55.213Z,60
2016-02-28T11:59:55.216Z,60
2016-02-28T12:00:55.235Z,60
2016-02-28T12:01:55.221Z,55
2016-02-28T12:02:55.302Z,55
2016-02-28T12:03:55.227Z,55
2016-02-28T12:04:55.260Z,60
2016-02-28T12:05:55.232Z,60
2016-02-28T12:06:55.313Z,60
2016-02-28T12:07:55.285Z,60
2016-02-28T12:08:55.287Z,60
2016-02-28T12:09:55.290Z,60
2016-02-28T12:10:55.276Z,60
2016-02-28T12:11:55.280Z,60
2016-02-28T12:12:55.267Z,60
2016-02-28T12:13:55.285Z,60
2016-02-28T12:14:55.318Z,60
2016-02-28T12:15:55.446Z,60
2016-02-28T12:16:55.340Z,60
2016-02-28T12:17:55.311Z,55
2016-02-28T12:18:55.314Z,55
2016-02-28T12:19:55.364Z,55
2016-02-28T12:20:55.319Z,55
2016-02-28T12:21:55.400Z,55
2016-02-28T12:22:55.356Z,55
2016-02-28T12:23:55.343Z,55
2016-02-28T12:24:55.331Z,55
2016-02-28T12:25:55.348Z,55
2016-02-28T12:26:55.351Z,55
2016-02-28T12:27:55.353Z,55
2016-02-28T12:28:55.388Z,55
2016-02-28T12:29:55.375Z,55
2016-02-28T12:30:55.362Z,55
2016-02-28T12:31:55.380Z,55
2016-02-28T12:32:55.399Z,55
2016-02-28T12:33:55.416Z,55
2016-02-28T12:34:55.372Z,55
2016-02-28T12:35:55.391Z,55
2016-02-28T12:36:55.410Z,55
2016-02-28T12:37:55.427Z,55
2016-02-28T12:38:55.430Z,55
2016-02-28T12:39:55.433Z,55
2016-02-28T12:40:55.420Z,55
2016-02-28T12:41:55.423Z,55
2016-02-28T12:42:55.441Z,55
2016-02-28T12:43:55.537Z,55
2016-02-28T12:44:55.446Z,55
2016-02-28T12:49:36.273Z,55
2016-02-28T12:49:48.960Z,50
2016-02-28T12:50:48.947Z,50
2016-02-28T12:51:48.950Z,50
2016-02-28T12:52:49.000Z,50
2016-02-28T12:53:48.846Z,50
2016-02-28T12:54:48.958Z,50
2016-02-28T12:55:48.975Z,50
2016-02-28T12:56:49.119Z,50
2016-02-28T12:57:48.966Z,50
2016-02-28T12:58:48.984Z,50
2016-02-28T12:59:49.003Z,50
2016-02-28T13:00:49.005Z,50
2016-02-28T13:01:49.008Z,50
2016-02-28T13:02:49.010Z,50
2016-02-28T13:03:49.013Z,50
2016-02-28T13:04:49.016Z,50
2016-02-28T13:05:49.334Z,50
2016-02-28T13:06:49.024Z,50
2016-02-28T13:07:49.032Z,50
2016-02-28T13:08:49.081Z,50
2016-02-28T13:09:49.052Z,50
2016-02-28T13:10:49.055Z,50
2016-02-28T13:11:49.058Z,50
2016-02-28T13:12:49.076Z,50
2016-02-28T13:13:49.063Z,50
2016-02-28T13:14:49.081Z,50
2016-02-28T13:18:27.264Z,50
2016-02-28T13:19:27.282Z,50
2016-02-28T13:20:27.269Z,55
2016-02-28T13:21:27.273Z,55
2016-02-28T13:22:27.276Z,55
2016-02-28T13:23:27.278Z,65
2016-02-28T13:24:27.390Z,100
2016-02-28T13:25:27.283Z,105
2016-02-28T13:26:27.302Z,75
2016-02-28T13:27:27.304Z,75
2016-02-28T13:28:27.322Z,85
2016-02-28T13:29:27.325Z,80
2016-02-28T13:30:27.343Z,55
2016-02-28T13:31:27.314Z,55
2016-02-28T13:32:27.349Z,55
2016-02-28T13:33:27.336Z,55
2016-02-28T13:34:27.339Z,55
2016-02-28T13:35:27.357Z,55
2016-02-28T13:36:27.344Z,50
2016-02-28T13:37:27.363Z,50
2016-02-28T13:38:27.366Z,45
2016-02-28T13:39:27.352Z,45
2016-02-28T13:40:27.386Z,45
2016-02-28T13:41:27.357Z,45
2016-02-28T13:42:27.407Z,45
2016-02-28T13:43:27.379Z,45
2016-02-28T13:44:27.397Z,45
2016-02-28T13:45:32.071Z,50
2016-02-28T13:46:27.402Z,45
2016-02-28T13:47:27.420Z,45
2016-02-28T13:48:27.423Z,45
2016-02-28T13:49:27.426Z,45
2016-02-28T13:50:27.429Z,45
2016-02-28T13:51:27.416Z,45
2016-02-28T13:52:27.450Z,45
2016-02-28T13:53:27.437Z,45
2016-02-28T13:54:27.470Z,45
2016-02-28T13:55:27.442Z,45
2016-02-28T13:56:27.461Z,45
2016-02-28T13:57:27.495Z,45
2016-02-28T13:58:27.466Z,45
2016-02-28T13:59:27.469Z,45
2016-02-28T14:00:27.471Z,45
2016-02-28T14:01:27.474Z,45
2016-02-28T14:02:27.492Z,45
2016-02-28T14:03:27.480Z,45
2016-02-28T14:04:27.482Z,45
2016-02-28T14:05:27.516Z,45
2016-02-28T14:06:27.533Z,45
2016-02-28T14:07:27.522Z,45
2016-02-28T14:08:27.508Z,45
2016-02-28T14:09:27.511Z,40
2016-02-28T14:10:27.513Z,40
2016-02-28T14:11:27.501Z,40
2016-02-28T14:12:27.535Z,40
2016-02-28T14:13:27.568Z,40
2016-02-28T14:14:27.555Z,40
2016-02-28T14:17:01.498Z,40
2016-02-28T14:17:14.154Z,40
2016-02-28T14:18:14.158Z,40
2016-02-28T14:19:14.176Z,40
2016-02-28T14:20:14.163Z,40
2016-02-28T14:21:14.165Z,40
2016-02-28T14:22:14.184Z,40
2016-02-28T14:23:14.187Z,40
2016-02-28T14:24:14.299Z,35
2016-02-28T14:25:14.208Z,35
2016-02-28T14:26:14.039Z,35
2016-02-28T14:27:14.197Z,35
2016-02-28T14:28:14.215Z,35
2016-02-28T14:29:14.218Z,35
2016-02-28T14:30:14.314Z,35
2016-02-28T14:31:14.239Z,35
2016-02-28T14:32:13.976Z,35
2016-02-28T14:33:14.072Z,35
2016-02-28T14:34:14.231Z,35
2016-02-28T14:35:13.828Z,35
2016-02-28T14:36:14.237Z,35
2016-02-28T14:37:14.271Z,35
2016-02-28T14:38:14.242Z,35
2016-02-28T14:39:14.119Z,35
2016-02-28T14:40:14.263Z,35
2016-02-28T14:41:14.267Z,35
2016-02-28T14:42:14.347Z,35
2016-02-28T14:43:14.287Z,35
2016-02-28T14:44:14.274Z,35
2016-02-28T14:49:34.884Z,30
2016-02-28T14:50:03.556Z,30
2016-02-28T14:51:03.606Z,30
2016-02-28T14:52:03.593Z,30
2016-02-28T14:53:03.643Z,30
2016-02-28T14:54:03.582Z,30
2016-02-28T14:55:03.632Z,30
2016-02-28T14:56:03.619Z,30
2016-02-28T14:57:03.606Z,30
2016-02-28T14:58:03.593Z,30
2016-02-28T14:59:03.596Z,30
2016-02-28T15:00:03.630Z,30
2016-02-28T15:01:03.617Z,30
2016-02-28T15:02:03.650Z,30
2016-02-28T15:03:03.623Z,30
2016-02-28T15:04:03.641Z,30
2016-02-28T15:05:03.487Z,30
2016-02-28T15:06:03.630Z,30
2016-02-28T15:07:03.650Z,30
2016-02-28T15:08:03.713Z,30
2016-02-28T15:09:03.701Z,30
2016-02-28T15:10:03.657Z,30
2016-02-28T15:11:03.675Z,30
2016-02-28T15:12:03.724Z,30
2016-02-28T15:13:03.680Z,25
2016-02-28T15:14:03.683Z,25
2016-02-28T15:15:03.686Z,25
2016-02-28T15:21:51.204Z,25
2016-02-28T15:22:42.207Z,25
2016-02-28T15:23:42.210Z,25